createdAt,value
2022-10-11T00:01:33.926Z,11.38
2022-10-11T00:04:00.453Z,11.36
2022-10-11T00:06:26.943Z,11.33
2022-10-11T00:08:53.297Z,11.25
2022-10-11T00:11:19.687Z,11.19
2022-10-11T00:13:46.085Z,11.09
2022-10-11T00:16:14.095Z,11.02
2022-10-11T00:18:40.969Z,10.92
2022-10-11T00:21:11.667Z,10.92
2022-10-11T00:23:38.446Z,10.92
2022-10-11T00:26:07.877Z,11.03
2022-10-11T00:28:35.596Z,10.99
2022-10-11T00:31:05.119Z,11.04
2022-10-11T00:33:31.748Z,11.08
2022-10-11T00:35:59.886Z,11.10
2022-10-11T00:38:26.351Z,11.09
2022-10-11T00:40:52.735Z,11.09
2022-10-11T00:43:22.624Z,11.17
2022-10-11T00:45:58.180Z,11.19
2022-10-11T00:48:42.722Z,11.17
2022-10-11T00:51:18.309Z,11.21
2022-10-11T00:53:48.215Z,11.21
2022-10-11T00:56:26.384Z,11.21
2022-10-11T00:58:55.921Z,11.13
2022-10-11T01:01:22.329Z,11.00
2022-10-11T01:03:48.889Z,10.94
2022-10-11T01:06:15.268Z,10.88
2022-10-11T01:08:41.851Z,10.71
2022-10-11T01:11:16.476Z,10.70
2022-10-11T01:13:48.526Z,10.72
2022-10-11T01:16:33.914Z,10.76
2022-10-11T01:19:15.426Z,10.77
2022-10-11T01:21:51.848Z,10.80
2022-10-11T01:24:49.479Z,10.90
2022-10-11T01:27:34.645Z,10.90
2022-10-11T01:30:33.011Z,10.91
2022-10-11T01:32:59.290Z,10.90
2022-10-11T01:35:31.148Z,10.91
2022-10-11T01:38:08.023Z,10.92
2022-10-11T01:40:43.874Z,10.93
2022-10-11T01:43:10.357Z,10.92
2022-10-11T01:45:37.743Z,10.92
2022-10-11T01:48:12.507Z,10.90
2022-10-11T01:50:58.696Z,10.85
2022-10-11T01:53:45.324Z,10.80
2022-10-11T01:56:39.332Z,10.82
2022-10-11T01:59:28.449Z,10.85
2022-10-11T02:02:04.902Z,10.84
2022-10-11T02:04:44.337Z,10.91
2022-10-11T02:07:28.060Z,10.94
2022-10-11T02:10:10.365Z,10.93
2022-10-11T02:12:42.369Z,10.90
2022-10-11T02:15:11.398Z,10.75
2022-10-11T02:17:47.861Z,10.67
2022-10-11T02:20:19.968Z,10.67
2022-10-11T02:22:51.219Z,10.67
2022-10-11T02:25:22.954Z,10.66
2022-10-11T02:27:51.872Z,10.60
2022-10-11T02:30:18.371Z,10.55
2022-10-11T02:32:47.783Z,10.51
2022-10-11T02:35:14.575Z,10.47
2022-10-11T02:37:43.870Z,10.52
2022-10-11T02:40:19.927Z,10.51
2022-10-11T02:43:01.887Z,10.54
2022-10-11T02:45:37.880Z,10.51
2022-10-11T02:48:06.466Z,10.46
2022-10-11T02:50:33.317Z,10.48
2022-10-11T02:52:59.650Z,10.51
2022-10-11T02:55:26.095Z,10.53
2022-10-11T02:57:52.455Z,10.55
2022-10-11T03:00:18.960Z,10.58
2022-10-11T03:02:45.315Z,10.60
2022-10-11T03:05:11.752Z,10.63
2022-10-11T03:07:38.172Z,10.71
2022-10-11T03:10:06.002Z,10.78
2022-10-11T03:12:32.898Z,10.88
2022-10-11T03:14:59.252Z,10.92
2022-10-11T03:17:41.270Z,10.99
2022-10-11T03:20:08.080Z,11.03
2022-10-11T03:22:34.708Z,11.04
2022-10-11T03:25:04.114Z,11.03
2022-10-11T03:27:32.613Z,10.99
2022-10-11T03:29:59.452Z,10.96
2022-10-11T03:32:26.132Z,10.92
2022-10-11T03:34:52.548Z,10.91
2022-10-11T03:37:18.899Z,10.88
2022-10-11T03:39:45.750Z,10.85
2022-10-11T03:42:13.124Z,10.83
2022-10-11T03:44:39.665Z,10.79
2022-10-11T03:47:06.065Z,10.74
2022-10-11T03:49:32.393Z,10.75
2022-10-11T03:51:59.106Z,10.74
2022-10-11T03:54:25.781Z,10.72
2022-10-11T03:56:52.363Z,10.71
2022-10-11T03:59:18.708Z,10.72
2022-10-11T04:01:45.076Z,10.71
2022-10-11T04:04:11.667Z,10.67
2022-10-11T04:06:37.998Z,10.65
2022-10-11T04:09:04.442Z,10.59
2022-10-11T04:11:30.783Z,10.55
2022-10-11T04:13:57.191Z,10.52
2022-10-11T04:16:23.554Z,10.52
2022-10-11T04:18:49.907Z,10.54
2022-10-11T04:21:16.337Z,10.53
2022-10-11T04:23:42.743Z,10.57
2022-10-11T04:26:09.237Z,10.64
2022-10-11T04:28:36.125Z,10.65
2022-10-11T04:31:04.953Z,10.72
2022-10-11T04:33:31.300Z,10.79
2022-10-11T04:35:57.632Z,10.82
2022-10-11T04:38:24.413Z,10.85
2022-10-11T04:40:51.089Z,10.88
2022-10-11T04:43:18.557Z,10.89
2022-10-11T04:45:45.039Z,10.93
2022-10-11T04:48:11.377Z,10.97
2022-10-11T04:50:37.779Z,11.02
2022-10-11T04:53:04.119Z,11.03
2022-10-11T04:55:30.483Z,11.00
2022-10-11T04:57:56.876Z,10.92
2022-10-11T05:00:23.355Z,10.85
2022-10-11T05:02:49.710Z,10.76
2022-10-11T05:05:17.571Z,10.67
2022-10-11T05:07:44.269Z,10.64
2022-10-11T05:10:10.940Z,10.64
2022-10-11T05:12:37.316Z,10.66
2022-10-11T05:15:04.272Z,10.72
2022-10-11T05:17:32.168Z,10.76
2022-10-11T05:19:58.577Z,10.82
2022-10-11T05:22:25.052Z,10.84
2022-10-11T05:24:51.447Z,10.90
2022-10-11T05:27:17.776Z,10.90
2022-10-11T05:29:44.113Z,10.88
2022-10-11T05:32:10.627Z,10.89
2022-10-11T05:34:36.950Z,10.92
2022-10-11T05:37:03.350Z,10.96
2022-10-11T05:39:29.743Z,11.00
2022-10-11T05:41:56.090Z,10.99
2022-10-11T05:44:22.997Z,11.02
2022-10-11T05:46:49.439Z,11.10
2022-10-11T05:49:15.757Z,11.18
2022-10-11T05:51:42.136Z,11.25
2022-10-11T05:54:08.455Z,11.25
2022-10-11T05:56:34.854Z,11.25
2022-10-11T05:59:02.555Z,11.21
2022-10-11T06:01:29.347Z,11.13
2022-10-11T06:03:55.966Z,11.19
2022-10-11T06:06:22.804Z,11.16
2022-10-11T06:08:50.252Z,11.17
2022-10-11T06:11:22.596Z,11.18
2022-10-11T06:13:49.031Z,11.22
2022-10-11T06:16:16.030Z,11.18
2022-10-11T06:18:42.394Z,11.21
2022-10-11T06:21:08.915Z,11.15
2022-10-11T06:23:35.240Z,11.18
2022-10-11T06:26:05.793Z,11.26
2022-10-11T06:28:33.429Z,11.31
2022-10-11T06:31:00.021Z,11.42
2022-10-11T06:33:26.999Z,11.52
2022-10-11T06:36:01.824Z,11.62
2022-10-11T06:38:28.496Z,11.73
2022-10-11T06:40:54.906Z,11.82
2022-10-11T06:43:21.372Z,11.87
2022-10-11T06:45:47.709Z,11.89
2022-10-11T06:48:14.258Z,11.85
2022-10-11T06:50:58.988Z,11.78
2022-10-11T06:53:26.896Z,11.72
2022-10-11T06:55:53.284Z,11.67
2022-10-11T06:58:19.646Z,11.59
2022-10-11T07:00:46.009Z,11.51
2022-10-11T07:03:12.432Z,11.49
2022-10-11T07:05:38.804Z,11.48
2022-10-11T07:08:05.210Z,11.46
2022-10-11T07:10:31.552Z,11.49
2022-10-11T07:12:57.911Z,11.57
2022-10-11T07:15:24.280Z,11.66
2022-10-11T07:17:50.614Z,11.70
2022-10-11T07:20:17.005Z,11.72
2022-10-11T07:22:43.380Z,11.80
2022-10-11T07:25:09.781Z,11.83
2022-10-11T07:27:36.168Z,11.92
2022-10-11T07:30:02.648Z,11.98
2022-10-11T07:32:28.991Z,12.11
2022-10-11T07:34:56.467Z,12.15
2022-10-11T07:37:22.862Z,12.22
2022-10-11T07:39:49.554Z,12.30
2022-10-11T07:42:15.968Z,12.38
2022-10-11T07:44:42.324Z,12.41
2022-10-11T07:47:11.204Z,12.45
2022-10-11T07:49:37.959Z,12.42
2022-10-11T07:52:04.818Z,12.39
2022-10-11T07:54:32.665Z,12.37
2022-10-11T07:56:59.135Z,12.35
2022-10-11T07:59:25.487Z,12.33
2022-10-11T08:01:51.895Z,12.35
2022-10-11T08:04:18.338Z,12.36
2022-10-11T08:06:44.663Z,12.44
2022-10-11T08:09:12.099Z,12.51
2022-10-11T08:11:39.255Z,12.54
2022-10-11T08:14:08.992Z,12.55
2022-10-11T08:16:36.407Z,12.53
2022-10-11T08:19:03.254Z,12.51
2022-10-11T08:21:30.284Z,12.59
2022-10-11T08:23:56.805Z,12.73
2022-10-11T08:26:23.311Z,12.92
2022-10-11T08:28:49.787Z,13.03
2022-10-11T08:31:16.764Z,13.15
2022-10-11T08:33:43.599Z,13.25
2022-10-11T08:36:10.766Z,13.28
2022-10-11T08:38:38.204Z,13.32
2022-10-11T08:41:23.766Z,13.23
2022-10-11T08:44:00.890Z,13.20
2022-10-11T08:46:33.233Z,13.14
2022-10-11T08:49:01.653Z,13.10
2022-10-11T08:51:32.345Z,13.06
2022-10-11T08:54:18.842Z,13.06
2022-10-11T08:56:46.011Z,13.04
2022-10-11T08:59:12.369Z,13.04
2022-10-11T09:02:15.086Z,13.08
2022-10-11T09:04:41.503Z,13.08
2022-10-11T09:07:19.237Z,13.08
2022-10-11T09:10:25.470Z,13.12
2022-10-11T09:13:10.264Z,13.12
2022-10-11T09:15:58.236Z,13.16
2022-10-11T09:18:48.055Z,13.19
2022-10-11T09:21:44.278Z,13.23
2022-10-11T09:24:39.698Z,13.34
2022-10-11T09:27:50.267Z,13.37
2022-10-11T09:30:16.555Z,13.44
2022-10-11T09:32:47.636Z,13.41
2022-10-11T09:35:19.842Z,13.50
2022-10-11T09:37:59.404Z,13.64
2022-10-11T09:40:44.681Z,13.69
2022-10-11T09:43:11.260Z,13.77
2022-10-11T09:45:38.652Z,13.80
2022-10-11T09:48:07.172Z,13.80
2022-10-11T09:50:34.319Z,13.72
2022-10-11T09:53:05.010Z,13.77
2022-10-11T09:55:39.392Z,13.73
2022-10-11T09:58:24.595Z,13.64
2022-10-11T10:01:07.595Z,13.73
2022-10-11T10:03:40.696Z,13.82
2022-10-11T10:06:24.925Z,13.96
2022-10-11T10:08:51.650Z,14.03
2022-10-11T10:11:19.179Z,14.14
2022-10-11T10:13:51.520Z,14.26
2022-10-11T10:16:33.823Z,14.37
2022-10-11T10:19:01.667Z,14.50
2022-10-11T10:21:35.804Z,14.70
2022-10-11T10:24:29.766Z,14.82
2022-10-11T10:27:14.340Z,14.93
2022-10-11T10:29:41.307Z,14.94
2022-10-11T10:32:20.737Z,15.05
2022-10-11T10:34:56.712Z,15.04
2022-10-11T10:37:38.668Z,14.98
2022-10-11T10:40:14.256Z,15.13
2022-10-11T10:42:40.617Z,15.27
2022-10-11T10:45:20.120Z,15.45
2022-10-11T10:48:16.661Z,15.30
2022-10-11T10:51:00.960Z,15.44
2022-10-11T10:53:49.471Z,15.63
2022-10-11T10:56:22.789Z,15.68
2022-10-11T10:59:14.054Z,15.62
2022-10-11T11:01:54.291Z,15.79
2022-10-11T11:04:32.024Z,16.72
2022-10-11T11:07:22.334Z,17.28
2022-10-11T11:09:56.598Z,17.17
2022-10-11T11:12:28.949Z,16.95
2022-10-11T11:15:27.155Z,16.88
2022-10-11T11:18:16.707Z,16.85
2022-10-11T11:20:59.971Z,16.40
2022-10-11T11:23:44.842Z,16.29
2022-10-11T11:26:37.130Z,16.15
2022-10-11T11:29:16.219Z,15.96
2022-10-11T11:32:17.315Z,15.84
2022-10-11T11:34:48.245Z,15.81
2022-10-11T11:37:30.902Z,15.77
2022-10-11T11:40:02.491Z,15.77
2022-10-11T11:42:54.172Z,15.80
2022-10-11T11:45:23.243Z,15.78
2022-10-11T11:48:20.296Z,15.76
2022-10-11T11:50:55.264Z,15.50
2022-10-11T11:53:42.218Z,15.45
2022-10-11T11:56:33.078Z,15.25
2022-10-11T11:59:17.664Z,15.25
2022-10-11T12:02:02.156Z,15.28
2022-10-11T12:04:34.409Z,15.25
2022-10-11T12:07:18.571Z,15.23
2022-10-11T12:09:50.445Z,15.20
2022-10-11T12:12:37.308Z,15.13
2022-10-11T12:15:21.031Z,14.99
2022-10-11T12:17:53.134Z,14.87
2022-10-11T12:20:27.232Z,14.81
2022-10-11T12:22:58.233Z,14.78
2022-10-11T12:25:28.377Z,14.70
2022-10-11T12:27:57.511Z,14.67
2022-10-11T12:30:42.541Z,14.63
2022-10-11T12:33:25.691Z,14.65
2022-10-11T12:35:54.878Z,14.67
2022-10-11T12:38:24.195Z,14.69
2022-10-11T12:40:54.234Z,14.76
2022-10-11T12:43:27.591Z,14.76
2022-10-11T12:45:54.049Z,14.76
2022-10-11T12:48:43.437Z,14.75
2022-10-11T12:51:15.473Z,14.79
2022-10-11T12:54:25.433Z,14.80
2022-10-11T12:57:27.864Z,14.80
2022-10-11T12:59:54.475Z,14.79
2022-10-11T13:02:29.818Z,14.75
2022-10-11T13:05:19.380Z,14.73
2022-10-11T13:07:46.473Z,14.74
2022-10-11T13:10:19.875Z,14.76
2022-10-11T13:12:48.500Z,14.80
2022-10-11T13:15:18.626Z,14.84
2022-10-11T13:17:45.429Z,14.91
2022-10-11T13:20:18.111Z,15.00
2022-10-11T13:22:50.689Z,15.13
2022-10-11T13:25:29.170Z,15.18
2022-10-11T13:27:57.687Z,15.26
2022-10-11T13:30:35.075Z,15.44
2022-10-11T13:33:08.491Z,15.49
2022-10-11T13:35:37.176Z,15.54
2022-10-11T13:38:07.881Z,15.58
2022-10-11T13:40:35.707Z,15.61
2022-10-11T13:43:05.091Z,15.67
2022-10-11T13:45:32.658Z,15.71
2022-10-11T13:47:59.107Z,15.74
2022-10-11T13:50:34.397Z,15.79
2022-10-11T13:53:02.214Z,15.81
2022-10-11T13:55:33.688Z,15.81
2022-10-11T13:58:03.676Z,15.85
2022-10-11T14:00:37.311Z,15.96
2022-10-11T14:03:12.520Z,15.98
2022-10-11T14:05:42.354Z,15.92
2022-10-11T14:08:38.823Z,15.92
2022-10-11T14:11:07.567Z,15.87
2022-10-11T14:13:45.871Z,15.91
2022-10-11T14:16:28.230Z,15.92
2022-10-11T14:19:00.329Z,15.96
2022-10-11T14:21:31.395Z,16.06
2022-10-11T14:24:10.408Z,16.09
2022-10-11T14:26:40.217Z,15.99
2022-10-11T14:29:12.121Z,16.06
2022-10-11T14:31:42.017Z,16.13
2022-10-11T14:34:16.528Z,15.95
2022-10-11T14:36:42.861Z,15.88
2022-10-11T14:39:14.702Z,16.01
2022-10-11T14:41:41.051Z,15.92
2022-10-11T14:44:07.404Z,15.85
2022-10-11T14:46:35.776Z,15.73
2022-10-11T14:49:02.288Z,15.73
2022-10-11T14:51:34.250Z,15.52
2022-10-11T14:54:00.579Z,15.35
2022-10-11T14:56:26.902Z,15.13
2022-10-11T14:58:53.338Z,15.17
2022-10-11T15:01:19.775Z,14.98
2022-10-11T15:03:46.194Z,14.91
2022-10-11T15:06:34.040Z,14.84
2022-10-11T15:09:00.456Z,14.89
2022-10-11T15:11:26.807Z,14.99
2022-10-11T15:13:53.263Z,15.12
2022-10-11T15:16:20.942Z,15.28
2022-10-11T15:18:51.049Z,15.27
2022-10-11T15:21:22.954Z,15.43
2022-10-11T15:23:50.728Z,15.51
2022-10-11T15:26:19.756Z,15.53
2022-10-11T15:28:47.233Z,15.54
2022-10-11T15:31:13.979Z,15.49
2022-10-11T15:33:41.187Z,15.42
2022-10-11T15:36:12.438Z,15.26
2022-10-11T15:38:38.910Z,15.12
2022-10-11T15:41:05.417Z,14.84
2022-10-11T15:43:31.889Z,14.77
2022-10-11T15:45:58.399Z,14.67
2022-10-11T15:48:26.789Z,14.58
2022-10-11T15:50:54.149Z,14.45
2022-10-11T15:53:24.599Z,14.34
2022-10-11T15:55:53.338Z,14.17
2022-10-11T15:58:32.605Z,14.08
2022-10-11T16:01:05.328Z,13.96
2022-10-11T16:03:33.196Z,13.82
2022-10-11T16:06:04.842Z,13.73
2022-10-11T16:08:32.267Z,13.56
2022-10-11T16:10:59.331Z,13.47
2022-10-11T16:13:25.668Z,13.37
2022-10-11T16:15:52.108Z,13.27
2022-10-11T16:18:20.144Z,13.19
2022-10-11T16:20:48.872Z,13.13
2022-10-11T16:23:15.630Z,13.05
2022-10-11T16:25:42.358Z,12.95
2022-10-11T16:28:10.151Z,12.86
2022-10-11T16:30:42.985Z,12.79
2022-10-11T16:33:09.514Z,12.74
2022-10-11T16:35:36.048Z,12.70
2022-10-11T16:38:02.602Z,12.60
2022-10-11T16:40:29.985Z,12.54
2022-10-11T16:42:56.373Z,12.50
2022-10-11T16:45:22.862Z,12.45
2022-10-11T16:47:50.121Z,12.44
2022-10-11T16:50:16.543Z,12.40
2022-10-11T16:52:44.150Z,12.37
2022-10-11T16:55:10.537Z,12.34
2022-10-11T16:57:37.779Z,12.28
2022-10-11T17:00:09.246Z,12.25
2022-10-11T17:02:35.931Z,12.23
2022-10-11T17:05:02.434Z,12.18
2022-10-11T17:07:29.475Z,12.09
2022-10-11T17:09:56.023Z,12.08
2022-10-11T17:12:23.516Z,12.03
2022-10-11T17:14:50.986Z,11.95
2022-10-11T17:17:17.961Z,11.92
2022-10-11T17:19:45.553Z,11.85
2022-10-11T17:22:14.154Z,11.77
2022-10-11T17:24:40.594Z,11.74
2022-10-11T17:27:07.491Z,11.64
2022-10-11T17:29:33.992Z,11.53
2022-10-11T17:32:00.663Z,11.54
2022-10-11T17:34:27.501Z,11.52
2022-10-11T17:36:54.099Z,11.50
2022-10-11T17:39:22.842Z,11.51
2022-10-11T17:41:49.855Z,11.44
2022-10-11T17:44:19.299Z,11.42
2022-10-11T17:46:46.966Z,11.35
2022-10-11T17:49:13.809Z,11.29
2022-10-11T17:51:42.992Z,11.27
2022-10-11T17:54:12.971Z,11.24
2022-10-11T17:56:41.300Z,11.15
2022-10-11T17:59:10.942Z,11.10
2022-10-11T18:01:37.392Z,11.05
2022-10-11T18:04:06.034Z,10.99
2022-10-11T18:06:38.887Z,10.97
2022-10-11T18:09:05.326Z,10.95
2022-10-11T18:11:31.971Z,10.92
2022-10-11T18:13:58.362Z,10.90
2022-10-11T18:16:29.538Z,10.84
2022-10-11T18:18:57.310Z,10.80
2022-10-11T18:21:34.227Z,10.79
2022-10-11T18:24:08.755Z,10.75
2022-10-11T18:26:35.300Z,10.70
2022-10-11T18:29:01.663Z,10.71
2022-10-11T18:31:30.451Z,10.69
2022-10-11T18:33:58.405Z,10.66
2022-10-11T18:36:26.859Z,10.59
2022-10-11T18:38:55.682Z,10.54
2022-10-11T18:41:24.090Z,10.51
2022-10-11T18:43:52.920Z,10.50
2022-10-11T18:46:20.159Z,10.49
2022-10-11T18:48:48.582Z,10.48
2022-10-11T18:51:20.691Z,10.47
2022-10-11T18:53:48.026Z,10.45
2022-10-11T18:56:16.955Z,10.43
2022-10-11T18:58:44.505Z,10.39
2022-10-11T19:01:15.836Z,10.32
2022-10-11T19:03:43.403Z,10.26
2022-10-11T19:06:18.462Z,10.22
2022-10-11T19:08:46.643Z,10.18
2022-10-11T19:11:15.597Z,10.16
2022-10-11T19:13:43.066Z,10.12
2022-10-11T19:16:15.135Z,10.08
2022-10-11T19:18:44.431Z,10.01
2022-10-11T19:21:12.750Z,9.98
2022-10-11T19:23:44.169Z,9.95
2022-10-11T19:26:26.931Z,9.92
2022-10-11T19:29:18.848Z,9.89
2022-10-11T19:31:48.251Z,9.82
2022-10-11T19:34:15.167Z,9.79
2022-10-11T19:36:42.742Z,9.77
2022-10-11T19:39:14.194Z,9.76
2022-10-11T19:41:41.640Z,9.72
2022-10-11T19:44:07.987Z,9.71
2022-10-11T19:49:24.642Z,9.69
2022-10-11T19:51:52.008Z,9.68
2022-10-11T19:54:18.530Z,9.68
2022-10-11T19:56:45.083Z,9.65
2022-10-11T19:59:11.967Z,9.62
2022-10-11T20:01:39.665Z,9.57
2022-10-11T20:04:08.511Z,9.51
2022-10-11T20:06:38.627Z,9.49
2022-10-11T20:09:27.939Z,9.47
2022-10-11T20:11:54.628Z,9.47
2022-10-11T20:14:21.197Z,9.47
2022-10-11T20:16:49.823Z,9.42
2022-10-11T20:19:16.409Z,9.41
2022-10-11T20:21:42.741Z,9.37
2022-10-11T20:24:09.475Z,9.38
2022-10-11T20:26:35.832Z,9.37
2022-10-11T20:29:02.197Z,9.35
2022-10-11T20:31:32.774Z,9.42
2022-10-11T20:34:02.072Z,9.46
2022-10-11T20:36:30.061Z,9.50
2022-10-11T20:38:57.939Z,9.54
2022-10-11T20:41:27.305Z,9.55
2022-10-11T20:43:56.031Z,9.58
2022-10-11T20:46:26.180Z,9.61
2022-10-11T20:49:00.403Z,9.62
2022-10-11T20:51:29.788Z,9.68
2022-10-11T20:53:56.467Z,9.67
2022-10-11T20:56:23.484Z,9.70
2022-10-11T20:58:52.394Z,9.72
2022-10-11T21:01:26.294Z,9.74
2022-10-11T21:03:53.475Z,9.75
2022-10-11T21:06:19.855Z,9.74
2022-10-11T21:08:46.185Z,9.77
2022-10-11T21:11:12.527Z,9.77
2022-10-11T21:13:39.001Z,9.77
2022-10-11T21:16:06.839Z,9.81
2022-10-11T21:18:35.349Z,9.81
2022-10-11T21:21:09.925Z,9.80
2022-10-11T21:23:36.536Z,9.81
2022-10-11T21:26:04.815Z,9.82
2022-10-11T21:28:31.339Z,9.83
2022-10-11T21:31:10.380Z,9.83
2022-10-11T21:33:37.186Z,9.80
2022-10-11T21:36:12.367Z,9.78
2022-10-11T21:38:39.258Z,9.77
2022-10-11T21:41:07.523Z,9.76
2022-10-11T21:43:35.667Z,9.70
2022-10-11T21:46:13.876Z,9.68
2022-10-11T21:48:40.379Z,9.68
2022-10-11T21:51:07.336Z,9.67
2022-10-11T21:53:33.905Z,9.63
2022-10-11T21:56:01.166Z,9.62
2022-10-11T21:58:27.936Z,9.56
2022-10-11T22:00:54.663Z,9.57
2022-10-11T22:03:21.054Z,9.51
2022-10-11T22:05:47.824Z,9.49
2022-10-11T22:08:14.928Z,9.50
2022-10-11T22:10:51.638Z,9.46
2022-10-11T22:13:17.978Z,9.43
2022-10-11T22:15:44.348Z,9.42
2022-10-11T22:18:10.757Z,9.44
2022-10-11T22:20:37.134Z,9.46
2022-10-11T22:23:03.674Z,9.43
2022-10-11T22:25:30.539Z,9.45
2022-10-11T22:27:56.881Z,9.43
2022-10-11T22:30:23.215Z,9.44
2022-10-11T22:32:51.392Z,9.40
2022-10-11T22:35:18.292Z,9.39
2022-10-11T22:37:44.632Z,9.35
2022-10-11T22:40:11.276Z,9.36
2022-10-11T22:42:37.845Z,9.32
2022-10-11T22:45:05.072Z,9.30
2022-10-11T22:47:31.390Z,9.28
2022-10-11T22:49:57.739Z,9.24
2022-10-11T22:52:24.076Z,9.23
2022-10-11T22:54:50.475Z,9.15
2022-10-11T22:57:16.789Z,9.08
2022-10-11T22:59:43.097Z,9.01
2022-10-11T23:02:09.438Z,8.97
2022-10-11T23:04:35.767Z,8.94
2022-10-11T23:07:04.949Z,8.91
2022-10-11T23:09:31.722Z,8.87
2022-10-11T23:11:59.085Z,8.82
2022-10-11T23:14:25.458Z,8.80
2022-10-11T23:16:52.303Z,8.80
2022-10-11T23:19:19.008Z,8.73
2022-10-11T23:21:45.361Z,8.72
2022-10-11T23:24:11.735Z,8.69
2022-10-11T23:26:38.191Z,8.67
2022-10-11T23:29:04.511Z,8.66
2022-10-11T23:31:30.869Z,8.63
2022-10-11T23:33:57.518Z,8.61
2022-10-11T23:36:25.731Z,8.59
2022-10-11T23:38:57.247Z,8.58
2022-10-11T23:41:25.731Z,8.63
2022-10-11T23:43:52.243Z,8.68
2022-10-11T23:46:18.925Z,8.73
2022-10-11T23:48:45.248Z,8.80
2022-10-11T23:51:11.729Z,8.84
2022-10-11T23:53:38.130Z,8.89
2022-10-11T23:56:05.476Z,8.96
2022-10-11T23:58:31.836Z,9.00
